Micmac Environmental Services

46° 41' 47"N, 68° 01' 59"W, Elevation 540 ft.
Eastern Time

Hourly observations for the last 48 hours

Date Time Temperature (F) Humi-
dity

(%)
Wind
(mph)
Pressure Rain (in) Sun
(W/m2)
UV ET
(in)
Air Dew 6 Hour 1 Hr 3 Hr 6 Hr Day
Alt
(in)
Sea
Level

(mb)
Max Min
25 22:00 46.7 38.9 74 Calm 30.34 1027.4 0.00 789 4.4 0.000
25 21:00 49.5 36.2 60 SSE 6 G 12 30.35 1027.7 0.00 789 4.4 0.000
25 20:00 51.1 32.6 56.5 51.1 49 SSE 1 G 4 30.34 1027.6 0.00 789 4.4 0.000
25 19:00 52.6 31.9 45 SE 3 G 10 30.34 1027.5 0.00 789 4.4 0.000
25 18:00 54.1 30.9 41 SE 7 G 12 30.36 1028.2 0.00 789 4.4 0.000
25 17:00 55.0 29.9 38 SE 1 G 12 30.37 1028.5 0.00 789 4.4 0.000
25 16:00 55.8 29.2 36 S 3 G 17 30.38 1028.8 0.00 789 4.4 0.000
25 15:00 55.2 27.3 34 ESE 5 G 12 30.41 1029.7 0.00 789 4.4 0.000
25 14:00 52.7 26.5 53.2 33.2 36 ESE 6 G 17 30.43 1030.4 0.00 789 4.4 0.000
25 13:00 49.2 21.3 33 SE 2 G 12 30.45 1031.1 0.00 789 4.4 0.000
25 12:00 47.3 19.6 33 SE 0 G 7 30.47 1031.9 0.00 789 4.4 0.000
25 11:00 42.4 16.7 35 ESE 2 G 6 30.50 1033.0 0.00 789 4.4 0.000
25 10:00 38.6 17.5 42 NE 1 G 3 30.51 1033.2 0.00 789 4.4 0.000
25 09:00 35.1 16.4 46 E 1 G 4 30.53 1033.8 0.00 789 4.4 0.000
25 08:00 33.2 17.0 33.2 25.5 51 ENE 1 G 5 30.52 1033.6 0.00 789 4.4 0.000
25 07:00 29.6 20.0 67 Calm 30.51 1033.3 0.00 789 4.4 0.000
25 06:00 25.6 19.7 78 Calm 30.49 1032.4 0.00 789 4.4 0.000
25 05:00 27.1 17.9 68 Calm 30.45 1031.2 0.00 789 4.4 0.000
25 04:00 28.0 17.4 64 Calm 30.44 1031.0 0.00 789 4.4 0.000
25 03:00 28.6 16.5 60 Calm 30.43 1030.7 0.00 789 4.4 0.000
25 02:00 29.1 16.9 40.0 29.1 60 Calm 30.42 1030.3 0.00 789 4.4 0.000
25 01:00 30.4 17.8 59 NNE 4 G 5 30.41 1029.8 0.00 789 4.4 0.000
25 00:00 31.3 18.6 59 NNE 4 G 6 30.39 1029.0 0.00 789 4.4 0.000
24 23:00 33.4 19.0 55 N 5 G 11 30.37 1028.6 0.00 789 4.4 0.079
24 22:00 35.5 18.7 50 NNE 0 G 6 30.35 1027.9 0.00 789 4.4 0.079
24 21:00 37.5 19.6 48 NNE 4 G 6 30.32 1026.7 0.00 789 4.4 0.079
24 20:00 40.0 19.8 48.5 40.0 44 NNE 4 G 10 30.28 1025.5 0.00 789 4.4 0.079
24 19:00 45.9 22.9 40 NW 4 G 11 30.26 1024.7 0.00 789 4.4 0.079
24 18:00 47.8 22.1 36 WNW 7 G 11 30.25 1024.4 0.00 789 4.4 0.079
24 17:00 47.3 23.0 38 WNW 12 G 18 30.24 1024.1 0.00 789 4.4 0.079
24 16:00 46.1 21.3 37 NW 10 G 18 30.24 1023.9 0.00 789 4.4 0.079
24 15:00 45.3 23.6 42 NW 11 G 17 30.23 1023.6 0.00 789 4.4 0.079
24 14:00 47.3 25.9 47.3 31.5 43 W 13 G 17 30.24 1023.9 0.00 830 5.0 0.062
24 13:00 44.0 24.5 46 W 11 G 16 30.24 1024.0 0.00 612 4.2 0.046
24 12:00 43.1 26.2 51 NW 8 G 16 30.25 1024.3 0.00 578 4.9 0.033
24 11:00 40.9 26.8 57 WNW 8 G 8 30.26 1024.7 0.00 925 5.3 0.018
24 10:00 36.9 21.8 54 NNW 5 G 13 30.25 1024.6 0.00 424 2.7 0.008
24 09:00 33.1 20.3 59 NNW 9 G 17 30.24 1023.9 0.00 534 3.9 0.000
24 08:00 31.6 20.5 42.2 30.6 63 NW 12 G 16 30.20 1022.8 0.00 534 3.9 0.000
24 07:00 31.1 23.1 72 NNW 10 G 17 30.17 1021.6 0.00 534 3.9 0.000
24 06:00 31.5 26.0 80 NNW 8 G 13 30.14 1020.7 0.00 534 3.9 0.000
24 05:00 33.7 28.8 82 NNW 6 G 12 30.10 1019.5 0.00 534 3.9 0.000
24 04:00 36.0 32.2 86 NNW 9 G 19 30.06 1018.0 0.00 534 3.9 0.000
24 03:00 39.5 36.5 89 N 11 G 11 30.03 1017.0 0.00 534 3.9 0.000
24 02:00 42.2 39.2 48.8 42.2 89 Calm 30.01 1016.3 0.00 534 3.9 0.000
24 01:00 43.1 39.2 86 Calm 30.00 1015.9 0.00 534 3.9 0.000
24 00:00 45.4 39.3 79 NNW 8 G 16 29.98 1015.2 0.07 534 3.9 0.000
23 23:00 46.7 38.9 74 SSW 5 G 11 29.92 1013.3 0.07 534 3.9 0.023

Data generated by WxSolution Version 1.8.4.5, Build 2009.10.25.